createdAt,value
2023-04-28T00:00:02.168Z,73.34
2023-04-28T00:02:29.702Z,72.66
2023-04-28T00:04:59.081Z,72.42
2023-04-28T00:07:26.784Z,71.09
2023-04-28T00:09:54.269Z,72.41
2023-04-28T00:12:21.721Z,72.96
2023-04-28T00:14:49.190Z,71.01
2023-04-28T00:17:17.166Z,70.61
2023-04-28T00:19:44.960Z,69.21
2023-04-28T00:22:15.101Z,69.04
2023-04-28T00:24:42.794Z,69.04
2023-04-28T00:27:10.312Z,70.04
2023-04-28T00:29:37.815Z,72.11
2023-04-28T00:32:05.498Z,71.83
2023-04-28T00:34:34.208Z,71.69
2023-04-28T00:37:01.690Z,72.01
2023-04-28T00:39:30.619Z,72.07
2023-04-28T00:41:58.166Z,72.21
2023-04-28T00:44:25.618Z,72.98
2023-04-28T00:46:53.162Z,72.19
2023-04-28T00:49:20.963Z,71.45
2023-04-28T00:51:48.455Z,71.54
2023-04-28T00:54:16.129Z,70.95
2023-04-28T00:56:45.642Z,70.62
2023-04-28T00:59:13.102Z,69.96
2023-04-28T01:01:40.659Z,69.18
2023-04-28T01:04:08.522Z,69.32
2023-04-28T01:06:38.166Z,70.75
2023-04-28T01:09:06.267Z,71.55
2023-04-28T01:11:33.786Z,70.66
2023-04-28T01:14:02.560Z,70.46
2023-04-28T01:16:32.478Z,69.56
2023-04-28T01:19:01.409Z,69.34
2023-04-28T01:21:30.362Z,68.73
2023-04-28T01:23:59.245Z,69.14
2023-04-28T01:26:27.223Z,69.59
2023-04-28T01:28:54.754Z,70.26
2023-04-28T01:31:22.295Z,69.63
2023-04-28T01:33:49.790Z,69.12
2023-04-28T01:36:17.259Z,69.19
2023-04-28T01:38:44.739Z,68.79
2023-04-28T01:41:13.574Z,69.07
2023-04-28T01:43:41.040Z,69.67
2023-04-28T01:46:08.567Z,70.92
2023-04-28T01:48:36.170Z,72.07
2023-04-28T01:51:03.710Z,72.61
2023-04-28T01:53:31.201Z,71.27
2023-04-28T01:55:59.203Z,70.59
2023-04-28T01:58:28.011Z,71.85
2023-04-28T02:00:55.480Z,70.83
2023-04-28T02:03:22.992Z,71.58
2023-04-28T02:05:50.730Z,71.42
2023-04-28T02:08:18.434Z,71.83
2023-04-28T02:10:45.984Z,73.31
2023-04-28T02:13:13.511Z,73.32
2023-04-28T02:15:43.380Z,74.91
2023-04-28T02:18:11.054Z,75.40
2023-04-28T02:20:38.569Z,75.46
2023-04-28T02:23:06.143Z,73.49
2023-04-28T02:25:33.676Z,74.13
2023-04-28T02:28:01.142Z,75.20
2023-04-28T02:30:28.663Z,75.51
2023-04-28T02:32:57.508Z,76.03
2023-04-28T02:35:25.046Z,76.71
2023-04-28T02:37:52.629Z,77.21
2023-04-28T02:40:20.591Z,78.54
2023-04-28T02:42:48.113Z,78.22
2023-04-28T02:45:15.785Z,77.28
2023-04-28T02:47:43.286Z,75.61
2023-04-28T02:50:12.348Z,76.14
2023-04-28T02:52:39.815Z,75.26
2023-04-28T02:55:08.122Z,76.35
2023-04-28T02:57:35.593Z,76.44
2023-04-28T03:00:03.142Z,76.80
2023-04-28T03:02:31.257Z,76.17
2023-04-28T03:04:58.921Z,77.02
2023-04-28T03:07:27.857Z,77.83
2023-04-28T03:09:55.433Z,79.95
2023-04-28T03:12:22.933Z,79.08
2023-04-28T03:14:50.392Z,79.44
2023-04-28T03:17:18.084Z,78.20
2023-04-28T03:19:45.540Z,79.66
2023-04-28T03:22:13.013Z,80.37
2023-04-28T03:24:41.805Z,79.58
2023-04-28T03:27:09.257Z,77.48
2023-04-28T03:29:36.727Z,76.40
2023-04-28T03:32:04.187Z,75.25
2023-04-28T03:34:31.723Z,75.41
2023-04-28T03:36:59.294Z,77.08
2023-04-28T03:39:26.762Z,75.79
2023-04-28T03:41:55.630Z,74.19
2023-04-28T03:44:23.455Z,74.21
2023-04-28T03:46:51.083Z,76.58
2023-04-28T03:49:18.539Z,77.60
2023-04-28T03:51:46.640Z,80.70
2023-04-28T03:54:14.274Z,80.47
2023-04-28T03:56:41.906Z,80.36
2023-04-28T03:59:11.718Z,81.52
2023-04-28T04:01:39.173Z,82.17
2023-04-28T04:04:07.098Z,82.12
2023-04-28T04:06:34.891Z,82.94
2023-04-28T04:09:02.702Z,82.68
2023-04-28T04:11:30.164Z,82.22
2023-04-28T04:13:57.605Z,80.98
2023-04-28T04:16:26.808Z,79.27
2023-04-28T04:18:54.462Z,77.08
2023-04-28T04:21:22.040Z,77.64
2023-04-28T04:23:49.526Z,78.23
2023-04-28T04:26:16.996Z,75.99
2023-04-28T04:28:44.481Z,75.81
2023-04-28T04:31:12.375Z,76.16
2023-04-28T04:33:41.233Z,76.41
2023-04-28T04:36:09.146Z,76.86
2023-04-28T04:38:36.628Z,77.14
2023-04-28T04:41:04.128Z,77.58
2023-04-28T04:43:31.592Z,76.91
2023-04-28T04:45:59.288Z,76.36
2023-04-28T04:48:26.776Z,76.46
2023-04-28T04:50:55.573Z,74.23
2023-04-28T04:53:23.168Z,74.37
2023-04-28T04:55:50.678Z,75.66
2023-04-28T04:58:18.300Z,78.14
2023-04-28T05:00:45.798Z,79.04
2023-04-28T05:03:13.525Z,79.53
2023-04-28T05:05:41.365Z,78.87
2023-04-28T05:08:10.534Z,75.63
2023-04-28T05:10:38.093Z,75.62
2023-04-28T05:13:05.676Z,73.21
2023-04-28T05:15:33.539Z,71.57
2023-04-28T05:18:01.198Z,72.26
2023-04-28T05:20:28.681Z,72.52
2023-04-28T05:22:56.111Z,75.13
2023-04-28T05:25:24.893Z,76.13
2023-04-28T05:27:52.381Z,76.65
2023-04-28T05:30:19.978Z,76.97
2023-04-28T05:32:47.495Z,76.94
2023-04-28T05:35:15.197Z,76.20
2023-04-28T05:37:43.555Z,77.47
2023-04-28T05:40:11.777Z,76.56
2023-04-28T05:42:40.629Z,71.90
2023-04-28T05:45:09.352Z,71.17
2023-04-28T05:47:36.956Z,71.82
2023-04-28T05:50:04.762Z,73.16
2023-04-28T05:52:32.218Z,74.60
2023-04-28T05:54:59.680Z,76.04
2023-04-28T05:57:27.310Z,77.21
2023-04-28T05:59:56.160Z,77.14
2023-04-28T06:02:24.537Z,74.91
2023-04-28T06:04:53.335Z,74.55
2023-04-28T06:07:21.513Z,73.84
2023-04-28T06:09:49.773Z,71.80
2023-04-28T06:12:17.230Z,70.55
2023-04-28T06:14:44.680Z,71.83
2023-04-28T06:17:13.494Z,71.10
2023-04-28T06:19:40.935Z,72.12
2023-04-28T06:22:08.390Z,73.81
2023-04-28T06:24:35.898Z,74.07
2023-04-28T06:27:03.668Z,74.61
2023-04-28T06:29:31.121Z,75.54
2023-04-28T06:31:58.848Z,74.91
2023-04-28T06:34:28.882Z,74.34
2023-04-28T06:36:56.608Z,75.30
2023-04-28T06:39:24.065Z,75.05
2023-04-28T06:41:51.530Z,74.10
2023-04-28T06:44:19.238Z,74.06
2023-04-28T06:46:46.956Z,75.69
2023-04-28T06:49:14.459Z,76.04
2023-04-28T06:51:43.260Z,73.46
2023-04-28T06:54:11.589Z,73.90
2023-04-28T06:56:39.134Z,74.56
2023-04-28T06:59:07.182Z,76.75
2023-04-28T07:01:34.642Z,76.67
2023-04-28T07:04:02.250Z,83.61
2023-04-28T07:06:31.707Z,85.88
2023-04-28T07:09:00.562Z,85.36
2023-04-28T07:11:28.146Z,85.45
2023-04-28T07:13:55.599Z,91.39
2023-04-28T07:16:23.116Z,92.32
2023-04-28T07:18:50.744Z,96.28
2023-04-28T07:21:18.216Z,98.32
2023-04-28T07:23:45.970Z,98.80
2023-04-28T07:26:16.343Z,98.66
2023-04-28T07:28:44.822Z,100.00
2023-04-28T07:31:12.394Z,100.00
2023-04-28T07:33:40.062Z,100.00
2023-04-28T07:36:08.225Z,100.00
2023-04-28T07:38:36.459Z,100.00
2023-04-28T07:41:05.748Z,100.00
2023-04-28T07:43:36.364Z,100.00
2023-04-28T07:46:03.921Z,100.00
2023-04-28T07:48:32.399Z,100.00
2023-04-28T07:50:59.876Z,100.00
2023-04-28T07:53:27.656Z,100.00
2023-04-28T07:55:55.480Z,100.00
2023-04-28T07:58:22.996Z,100.00
2023-04-28T08:00:51.786Z,100.00
2023-04-28T08:03:19.439Z,100.00
2023-04-28T08:05:47.247Z,100.00
2023-04-28T08:08:14.786Z,100.00
2023-04-28T08:10:43.751Z,100.00
2023-04-28T08:13:11.211Z,100.00
2023-04-28T08:15:38.739Z,100.00
2023-04-28T08:18:08.407Z,100.00
2023-04-28T08:20:36.065Z,100.00
2023-04-28T08:23:03.523Z,100.00
2023-04-28T08:25:31.008Z,100.00
2023-04-28T08:27:58.689Z,100.00
2023-04-28T08:30:26.204Z,100.00
2023-04-28T08:32:54.093Z,100.00
2023-04-28T08:35:23.042Z,100.00
2023-04-28T08:37:50.723Z,100.00
2023-04-28T08:40:18.348Z,100.00
2023-04-28T08:42:46.225Z,100.00
2023-04-28T08:45:15.628Z,100.00
2023-04-28T08:47:45.991Z,100.00
2023-04-28T08:50:14.678Z,100.00
2023-04-28T08:52:43.691Z,100.00
2023-04-28T08:55:13.759Z,100.00
2023-04-28T08:57:45.447Z,100.00
2023-04-28T09:00:13.816Z,100.00
2023-04-28T09:02:42.949Z,100.00
2023-04-28T09:05:11.930Z,100.00
2023-04-28T09:07:39.781Z,100.00
2023-04-28T09:10:27.466Z,100.00
2023-04-28T09:12:57.379Z,100.00
2023-04-28T09:15:31.831Z,100.00
2023-04-28T09:18:02.337Z,100.00
2023-04-28T09:20:31.445Z,100.00
2023-04-28T09:23:14.308Z,100.00
2023-04-28T09:25:57.012Z,100.00
2023-04-28T09:28:24.727Z,100.00
2023-04-28T09:30:52.388Z,100.00
2023-04-28T09:33:20.887Z,100.00
2023-04-28T09:35:48.928Z,100.00
2023-04-28T09:38:16.875Z,100.00
2023-04-28T09:40:53.383Z,100.00
2023-04-28T09:43:28.996Z,100.00
2023-04-28T09:45:57.750Z,100.00
2023-04-28T09:48:33.750Z,100.00
2023-04-28T09:51:02.888Z,100.00
2023-04-28T09:53:31.461Z,100.00
2023-04-28T09:56:02.391Z,100.00
2023-04-28T09:58:30.679Z,100.00
2023-04-28T10:00:59.728Z,100.00
2023-04-28T10:03:29.860Z,100.00
2023-04-28T10:05:58.855Z,100.00
2023-04-28T10:08:28.067Z,100.00
2023-04-28T10:10:56.926Z,100.00
2023-04-28T10:13:26.491Z,100.00
2023-04-28T10:15:55.357Z,100.00
2023-04-28T10:18:24.469Z,100.00
2023-04-28T10:20:57.489Z,100.00
2023-04-28T10:24:09.209Z,100.00
2023-04-28T10:27:09.215Z,100.00
2023-04-28T10:29:38.276Z,100.00
2023-04-28T10:32:26.061Z,100.00
2023-04-28T10:35:14.984Z,100.00
2023-04-28T10:38:06.189Z,100.00
2023-04-28T10:40:34.644Z,100.00
2023-04-28T10:43:02.838Z,100.00
2023-04-28T10:46:02.748Z,100.00
2023-04-28T10:49:03.310Z,100.00
2023-04-28T10:51:31.901Z,100.00
2023-04-28T10:54:11.131Z,100.00
2023-04-28T10:56:39.982Z,100.00
2023-04-28T10:59:28.128Z,100.00
2023-04-28T11:01:55.700Z,100.00
2023-04-28T11:04:24.437Z,100.00
2023-04-28T11:07:10.524Z,100.00
2023-04-28T11:09:53.123Z,100.00
2023-04-28T11:12:20.593Z,100.00
2023-04-28T11:14:48.066Z,100.00
2023-04-28T11:17:18.607Z,100.00
2023-04-28T11:19:48.601Z,100.00
2023-04-28T11:22:21.140Z,100.00
2023-04-28T11:25:00.798Z,100.00
2023-04-28T11:27:29.903Z,100.00
2023-04-28T11:29:57.527Z,100.00
2023-04-28T11:32:29.292Z,100.00
2023-04-28T11:34:56.921Z,100.00
2023-04-28T11:37:24.401Z,100.00
2023-04-28T11:39:51.916Z,100.00
2023-04-28T11:42:20.753Z,100.00
2023-04-28T11:44:53.113Z,100.00
2023-04-28T11:47:31.079Z,100.00
2023-04-28T11:49:58.824Z,100.00
2023-04-28T11:52:27.388Z,100.00
2023-04-28T11:54:56.521Z,100.00
2023-04-28T11:57:25.792Z,100.00
2023-04-28T11:59:53.438Z,100.00
2023-04-28T12:02:29.117Z,100.00
2023-04-28T12:04:57.530Z,100.00
2023-04-28T12:07:25.134Z,100.00
2023-04-28T12:10:11.728Z,100.00
2023-04-28T12:12:51.083Z,100.00
2023-04-28T12:15:21.857Z,100.00
2023-04-28T12:17:50.732Z,100.00
2023-04-28T12:20:37.528Z,100.00
2023-04-28T12:23:05.571Z,100.00
2023-04-28T12:25:33.958Z,100.00
2023-04-28T12:28:04.530Z,100.00
2023-04-28T12:30:33.780Z,100.00
2023-04-28T12:33:01.720Z,100.00
2023-04-28T12:35:30.214Z,100.00
2023-04-28T12:37:58.493Z,100.00
2023-04-28T12:40:26.085Z,100.00
2023-04-28T12:42:53.707Z,100.00
2023-04-28T12:45:22.469Z,100.00
2023-04-28T12:47:49.989Z,100.00
2023-04-28T12:50:17.484Z,100.00
2023-04-28T12:52:44.949Z,100.00
2023-04-28T12:55:12.400Z,100.00
2023-04-28T12:57:39.966Z,100.00
2023-04-28T13:00:09.300Z,100.00
2023-04-28T13:02:38.265Z,100.00
2023-04-28T13:05:07.230Z,100.00
2023-04-28T13:07:35.062Z,100.00
2023-04-28T13:10:02.575Z,100.00
2023-04-28T13:12:30.077Z,100.00
2023-04-28T13:14:57.565Z,100.00
2023-04-28T13:17:25.108Z,100.00
2023-04-28T13:19:54.193Z,100.00
2023-04-28T13:22:21.916Z,100.00
2023-04-28T13:24:49.401Z,100.00
2023-04-28T13:27:16.848Z,100.00
2023-04-28T13:29:44.281Z,100.00
2023-04-28T13:32:11.807Z,100.00
2023-04-28T13:34:39.939Z,100.00
2023-04-28T13:37:08.758Z,100.00
2023-04-28T13:39:36.202Z,100.00
2023-04-28T13:42:03.792Z,100.00
2023-04-28T13:44:31.319Z,100.00
2023-04-28T13:46:59.251Z,100.00
2023-04-28T13:49:26.699Z,100.00
2023-04-28T13:51:54.179Z,100.00
2023-04-28T13:54:23.028Z,100.00
2023-04-28T13:56:50.656Z,100.00
2023-04-28T13:59:19.211Z,100.00
2023-04-28T14:01:46.695Z,100.00
2023-04-28T14:04:14.446Z,100.00
2023-04-28T14:06:42.178Z,100.00
2023-04-28T14:09:09.806Z,100.00
2023-04-28T14:11:38.600Z,100.00
2023-04-28T14:14:06.254Z,100.00
2023-04-28T14:16:33.771Z,100.00
2023-04-28T14:19:01.697Z,100.00
2023-04-28T14:21:29.164Z,100.00
2023-04-28T14:23:56.636Z,100.00
2023-04-28T14:26:25.180Z,100.00
2023-04-28T14:28:54.921Z,100.00
2023-04-28T14:31:22.396Z,100.00
2023-04-28T14:33:49.940Z,100.00
2023-04-28T14:36:17.400Z,100.00
2023-04-28T14:38:44.866Z,100.00
2023-04-28T14:41:12.613Z,100.00
2023-04-28T14:43:40.095Z,100.00
2023-04-28T14:46:09.094Z,100.00
2023-04-28T14:48:37.643Z,100.00
2023-04-28T14:51:05.711Z,100.00
2023-04-28T14:53:33.211Z,100.00
2023-04-28T14:56:16.804Z,100.00
2023-04-28T14:58:45.890Z,100.00
2023-04-28T15:01:14.832Z,100.00
2023-04-28T15:03:42.610Z,100.00
2023-04-28T15:06:10.649Z,100.00
2023-04-28T15:08:38.139Z,100.00
2023-04-28T15:11:05.561Z,100.00
2023-04-28T15:13:33.174Z,100.00
2023-04-28T15:16:00.616Z,100.00
2023-04-28T15:18:29.511Z,100.00
2023-04-28T15:20:56.977Z,100.00
2023-04-28T15:23:24.419Z,100.00
2023-04-28T15:25:53.551Z,100.00
2023-04-28T15:28:22.048Z,100.00
2023-04-28T15:30:49.530Z,100.00
2023-04-28T15:33:18.518Z,100.00
2023-04-28T15:35:47.452Z,100.00
2023-04-28T15:38:14.946Z,100.00
2023-04-28T15:40:43.483Z,100.00
2023-04-28T15:43:11.058Z,100.00
2023-04-28T15:45:39.677Z,100.00
2023-04-28T15:48:07.573Z,100.00
2023-04-28T15:50:36.879Z,100.00
2023-04-28T15:53:05.697Z,100.00
2023-04-28T15:55:33.313Z,100.00
2023-04-28T15:58:01.248Z,100.00
2023-04-28T16:00:28.833Z,100.00
2023-04-28T16:02:56.610Z,100.00
2023-04-28T16:05:24.179Z,100.00
2023-04-28T16:07:52.765Z,100.00
2023-04-28T16:10:21.978Z,100.00
2023-04-28T16:12:49.529Z,100.00
2023-04-28T16:15:17.289Z,100.00
2023-04-28T16:17:44.999Z,100.00
2023-04-28T16:20:13.053Z,100.00
2023-04-28T16:22:41.612Z,100.00
2023-04-28T16:25:10.430Z,100.00
2023-04-28T16:27:40.011Z,100.00
2023-04-28T16:30:08.743Z,100.00
2023-04-28T16:32:38.215Z,100.00
2023-04-28T16:35:06.417Z,100.00
2023-04-28T16:37:36.242Z,100.00
2023-04-28T16:40:04.480Z,100.00
2023-04-28T16:42:32.137Z,100.00
2023-04-28T16:45:00.926Z,100.00
2023-04-28T16:47:31.098Z,100.00
2023-04-28T16:49:58.729Z,100.00
2023-04-28T16:52:27.173Z,100.00
2023-04-28T16:54:55.051Z,100.00
2023-04-28T16:57:22.681Z,100.00
2023-04-28T16:59:50.850Z,100.00
2023-04-28T17:02:19.962Z,100.00
2023-04-28T17:04:47.513Z,100.00
2023-04-28T17:07:15.112Z,100.00
2023-04-28T17:09:42.554Z,100.00
2023-04-28T17:12:10.009Z,100.00
2023-04-28T17:14:38.896Z,100.00
2023-04-28T17:17:06.529Z,100.00
2023-04-28T17:19:35.377Z,100.00
2023-04-28T17:22:03.770Z,100.00
2023-04-28T17:24:31.218Z,100.00
2023-04-28T17:26:58.840Z,100.00
2023-04-28T17:29:26.709Z,100.00
2023-04-28T17:31:54.443Z,100.00
2023-04-28T17:34:22.167Z,100.00
2023-04-28T17:36:51.121Z,100.00
2023-04-28T17:39:19.176Z,100.00
2023-04-28T17:41:47.301Z,100.00
2023-04-28T17:44:14.751Z,100.00
2023-04-28T17:46:42.233Z,100.00
2023-04-28T17:49:09.712Z,100.00
2023-04-28T17:51:37.968Z,100.00
2023-04-28T17:54:09.362Z,100.00
2023-04-28T17:56:37.745Z,100.00
2023-04-28T17:59:05.886Z,100.00
2023-04-28T18:01:33.983Z,100.00
2023-04-28T18:04:01.645Z,100.00
2023-04-28T18:06:29.896Z,100.00
2023-04-28T18:08:57.408Z,100.00
2023-04-28T18:11:27.837Z,100.00
2023-04-28T18:13:55.336Z,100.00
2023-04-28T18:16:22.855Z,100.00
2023-04-28T18:18:50.679Z,100.00
2023-04-28T18:21:18.270Z,100.00
2023-04-28T18:23:46.525Z,100.00
2023-04-28T18:26:14.003Z,100.00
2023-04-28T18:28:42.927Z,100.00
2023-04-28T18:31:10.438Z,100.00
2023-04-28T18:33:37.923Z,100.00
2023-04-28T18:36:07.356Z,100.00
2023-04-28T18:38:36.482Z,100.00
2023-04-28T18:41:14.766Z,100.00
2023-04-28T18:43:44.784Z,100.00
2023-04-28T18:46:12.292Z,100.00
2023-04-28T18:48:40.022Z,100.00
2023-04-28T18:51:07.700Z,100.00
2023-04-28T18:53:36.821Z,100.00
2023-04-28T18:56:04.784Z,100.00
2023-04-28T18:58:32.690Z,100.00
2023-04-28T19:01:01.558Z,100.00
2023-04-28T19:03:30.259Z,100.00
2023-04-28T19:05:57.827Z,100.00
2023-04-28T19:08:25.263Z,100.00
2023-04-28T19:10:52.725Z,100.00
2023-04-28T19:13:20.185Z,100.00
2023-04-28T19:15:47.717Z,100.00
2023-04-28T19:18:16.563Z,100.00
2023-04-28T19:20:44.016Z,100.00
2023-04-28T19:23:11.613Z,100.00
2023-04-28T19:25:39.260Z,100.00
2023-04-28T19:28:06.813Z,100.00
2023-04-28T19:30:34.350Z,100.00
2023-04-28T19:33:01.969Z,100.00
2023-04-28T19:35:30.777Z,100.00
2023-04-28T19:37:58.225Z,100.00
2023-04-28T19:40:26.301Z,100.00
2023-04-28T19:42:55.429Z,100.00
2023-04-28T19:45:23.167Z,100.00
2023-04-28T19:47:51.811Z,100.00
2023-04-28T19:50:19.672Z,100.00
2023-04-28T19:52:48.472Z,100.00
2023-04-28T19:55:19.925Z,100.00
2023-04-28T19:57:47.495Z,100.00
2023-04-28T20:00:15.340Z,100.00
2023-04-28T20:02:44.311Z,100.00
2023-04-28T20:05:12.234Z,100.00
2023-04-28T20:07:39.754Z,100.00
2023-04-28T20:10:09.542Z,100.00
2023-04-28T20:12:37.017Z,100.00
2023-04-28T20:15:04.969Z,100.00
2023-04-28T20:17:32.492Z,100.00
2023-04-28T20:20:00.208Z,100.00
2023-04-28T20:22:27.777Z,100.00
2023-04-28T20:24:56.285Z,100.00
2023-04-28T20:27:25.064Z,100.00
2023-04-28T20:29:52.636Z,100.00
2023-04-28T20:32:20.632Z,100.00
2023-04-28T20:34:48.098Z,100.00
2023-04-28T20:37:15.550Z,100.00
2023-04-28T20:39:42.983Z,100.00
2023-04-28T20:42:10.657Z,100.00
2023-04-28T20:44:40.883Z,100.00
2023-04-28T20:47:08.399Z,100.00
2023-04-28T20:49:36.085Z,100.00
2023-04-28T20:52:04.755Z,100.00
2023-04-28T20:54:33.511Z,100.00
2023-04-28T20:57:01.712Z,100.00
2023-04-28T20:59:32.198Z,100.00
2023-04-28T21:02:01.361Z,100.00
2023-04-28T21:04:28.902Z,100.00
2023-04-28T21:06:56.432Z,100.00
2023-04-28T21:09:24.938Z,100.00
2023-04-28T21:11:52.621Z,100.00
2023-04-28T21:14:20.310Z,100.00
2023-04-28T21:16:47.818Z,100.00
2023-04-28T21:19:17.304Z,100.00
2023-04-28T21:21:44.977Z,100.00
2023-04-28T21:24:12.607Z,100.00
2023-04-28T21:26:40.657Z,100.00
2023-04-28T21:29:09.229Z,100.00
2023-04-28T21:31:37.232Z,100.00
2023-04-28T21:34:04.783Z,100.00
2023-04-28T21:36:34.357Z,100.00
2023-04-28T21:39:01.842Z,100.00
2023-04-28T21:41:29.306Z,100.00
2023-04-28T21:43:56.779Z,100.00
2023-04-28T21:46:24.264Z,100.00
2023-04-28T21:48:51.715Z,100.00
2023-04-28T21:51:19.221Z,100.00
2023-04-28T21:53:48.033Z,100.00
2023-04-28T21:56:17.145Z,100.00
2023-04-28T21:58:44.998Z,100.00
2023-04-28T22:01:15.276Z,100.00
2023-04-28T22:03:42.945Z,100.00
2023-04-28T22:06:10.613Z,100.00
2023-04-28T22:08:38.341Z,100.00
2023-04-28T22:11:07.180Z,100.00
2023-04-28T22:13:34.875Z,100.00
2023-04-28T22:16:02.776Z,100.00
2023-04-28T22:18:30.422Z,100.00
2023-04-28T22:20:57.988Z,100.00
2023-04-28T22:23:25.871Z,100.00
2023-04-28T22:25:53.323Z,100.00
2023-04-28T22:28:22.571Z,100.00
2023-04-28T22:30:50.044Z,100.00
2023-04-28T22:33:17.534Z,100.00
2023-04-28T22:35:44.976Z,100.00
2023-04-28T22:38:12.455Z,100.00
2023-04-28T22:40:39.894Z,100.00
2023-04-28T22:43:07.350Z,100.00
2023-04-28T22:45:36.178Z,100.00
2023-04-28T22:48:03.878Z,100.00
2023-04-28T22:50:31.443Z,100.00
2023-04-28T22:52:58.907Z,100.00
2023-04-28T22:55:26.667Z,100.00
2023-04-28T22:57:54.122Z,100.00
2023-04-28T23:00:21.733Z,100.00
2023-04-28T23:02:50.628Z,100.00
2023-04-28T23:05:18.388Z,100.00
2023-04-28T23:07:45.936Z,100.00
2023-04-28T23:10:14.734Z,100.00
2023-04-28T23:12:42.276Z,100.00
2023-04-28T23:15:10.420Z,100.00
2023-04-28T23:17:37.947Z,100.00
2023-04-28T23:20:07.989Z,100.00
2023-04-28T23:22:35.430Z,100.00
2023-04-28T23:25:02.948Z,100.00
2023-04-28T23:27:30.379Z,100.00
2023-04-28T23:29:57.955Z,100.00
2023-04-28T23:32:25.538Z,100.00
2023-04-28T23:34:53.623Z,100.00
2023-04-28T23:37:22.456Z,100.00
2023-04-28T23:39:50.156Z,100.00
2023-04-28T23:42:17.870Z,100.00
2023-04-28T23:44:45.310Z,100.00
2023-04-28T23:47:13.815Z,100.00
2023-04-28T23:49:41.261Z,100.00
2023-04-28T23:52:08.694Z,100.00
2023-04-28T23:54:37.509Z,100.00
2023-04-28T23:57:05.265Z,100.00
2023-04-28T23:59:32.726Z,100.00
